createdAt,value
2016-04-23T00:02:00.003Z,1007.63
2016-04-23T00:05:07.152Z,1007.59
2016-04-23T00:08:10.223Z,1007.63
2016-04-23T00:11:22.356Z,1007.47
2016-04-23T00:14:34.457Z,1007.51
2016-04-23T00:17:46.637Z,1007.53
2016-04-23T00:21:02.758Z,1007.51
2016-04-23T00:24:05.891Z,1007.53
2016-04-23T00:27:17.805Z,1007.37
2016-04-23T00:30:29.907Z,1007.41
2016-04-23T00:33:41.961Z,1007.39
2016-04-23T00:36:53.985Z,1007.35
2016-04-23T00:40:07.949Z,1007.41
2016-04-23T00:43:11.160Z,1007.31
2016-04-23T00:46:23.278Z,1007.31
2016-04-23T00:49:35.270Z,1007.23
2016-04-23T00:52:47.295Z,1007.23
2016-04-23T00:56:03.336Z,1007.21
2016-04-23T00:59:06.360Z,1007.29
2016-04-23T01:02:18.446Z,1007.17
2016-04-23T01:05:30.642Z,1007.13
2016-04-23T01:08:42.822Z,1007.19
2016-04-23T01:11:58.860Z,1007.19
2016-04-23T01:15:06.028Z,1007.17
2016-04-23T01:18:09.161Z,1007.19
2016-04-23T01:21:21.279Z,1007.09
2016-04-23T01:24:33.334Z,1007.15
2016-04-23T01:27:45.106Z,1007.05
2016-04-23T01:31:00.789Z,1007.07
2016-04-23T01:34:04.063Z,1006.95
2016-04-23T01:37:16.102Z,1006.89
2016-04-23T01:40:28.235Z,1006.91
2016-04-23T01:43:40.337Z,1006.97
2016-04-23T01:46:52.549Z,1006.95
2016-04-23T01:50:04.293Z,1006.89
2016-04-23T01:53:16.271Z,1006.77
2016-04-23T01:56:25.123Z,1006.89
2016-04-23T01:59:37.349Z,1006.85
2016-04-23T02:02:45.935Z,1006.71
2016-04-23T02:06:02.055Z,1006.75
2016-04-23T02:09:05.174Z,1006.83
2016-04-23T02:12:15.135Z,1006.73
2016-04-23T02:15:27.157Z,1006.71
2016-04-23T02:18:39.384Z,1006.65
2016-04-23T02:21:50.706Z,1006.67
2016-04-23T02:25:04.975Z,1006.65
2016-04-23T02:28:08.016Z,1006.55
2016-04-23T02:31:20.164Z,1006.55
2016-04-23T02:34:32.374Z,1006.61
2016-04-23T02:37:44.461Z,1006.55
2016-04-23T02:41:00.235Z,1006.52
2016-04-23T02:44:07.184Z,1006.54
2016-04-23T02:47:13.082Z,1006.52
2016-04-23T02:50:21.964Z,1006.5
2016-04-23T02:53:33.769Z,1006.46
2016-04-23T02:56:45.669Z,1006.42
2016-04-23T03:00:01.489Z,1006.32
2016-04-23T03:03:04.672Z,1006.4
2016-04-23T03:06:16.430Z,1006.4
2016-04-23T03:09:28.110Z,1006.38
2016-04-23T03:12:36.758Z,1006.28
2016-04-23T03:15:48.812Z,1006.24
2016-04-23T03:19:04.340Z,1006.32
2016-04-23T03:22:06.145Z,1006.4
2016-04-23T03:25:19.246Z,1006.36
2016-04-23T03:28:31.286Z,1006.34
2016-04-23T03:31:43.341Z,1006.28
2016-04-23T03:34:59.255Z,1006.3
2016-04-23T03:38:06.094Z,1006.32
2016-04-23T03:41:09.164Z,1006.34
2016-04-23T03:44:21.188Z,1006.26
2016-04-23T03:47:33.103Z,1006.24
2016-04-23T03:50:44.907Z,1006.28
2016-04-23T03:54:00.556Z,1006.28
2016-04-23T03:57:07.524Z,1006.28
2016-04-23T04:00:10.297Z,1006.18
2016-04-23T04:03:22.118Z,1006.22
2016-04-23T04:06:34.142Z,1006.22
2016-04-23T04:09:46.165Z,1006.1
2016-04-23T04:13:02.048Z,1006.18
2016-04-23T04:16:04.994Z,1006.08
2016-04-23T04:19:16.739Z,1006.1
2016-04-23T04:22:28.607Z,1006.08
2016-04-23T04:25:40.193Z,1006.04
2016-04-23T04:28:52.013Z,1006.08
2016-04-23T04:32:07.571Z,1006.02
2016-04-23T04:35:10.267Z,1005.9
2016-04-23T04:38:21.837Z,1005.98
2016-04-23T04:41:33.376Z,1005.92
2016-04-23T04:44:45.025Z,1005.88
2016-04-23T04:48:00.050Z,1005.94
2016-04-23T04:51:06.903Z,1005.9
2016-04-23T04:54:09.708Z,1005.82
2016-04-23T04:57:21.310Z,1005.86
2016-04-23T05:00:31.990Z,1005.86
2016-04-23T05:03:44.733Z,1005.68
2016-04-23T05:06:53.100Z,1005.74
2016-04-23T05:10:04.858Z,1005.74
2016-04-23T05:13:16.572Z,1005.76
2016-04-23T05:16:28.486Z,1005.64
2016-04-23T05:19:40.464Z,1005.74
2016-04-23T05:22:51.986Z,1005.74
2016-04-23T05:26:07.732Z,1005.72
2016-04-23T05:29:10.630Z,1005.68
2016-04-23T05:32:22.467Z,1005.66
2016-04-23T05:35:34.178Z,1005.74
2016-04-23T05:38:43.326Z,1005.74
2016-04-23T05:41:58.976Z,1005.82
2016-04-23T05:45:05.953Z,1005.72
2016-04-23T05:48:09.089Z,1005.76
2016-04-23T05:51:21.097Z,1005.76
2016-04-23T05:54:33.369Z,1005.64
2016-04-23T05:57:45.659Z,1005.52
2016-04-23T06:01:01.793Z,1005.48
2016-04-23T06:04:05.143Z,1005.5
2016-04-23T06:07:17.280Z,1005.44
2016-04-23T06:10:29.490Z,1005.44
2016-04-23T06:13:41.889Z,1005.52
2016-04-23T06:16:54.195Z,1005.42
2016-04-23T06:20:06.655Z,1005.36
2016-04-23T06:23:19.136Z,1005.34
2016-04-23T06:26:31.799Z,1005.3
2016-04-23T06:29:44.527Z,1005.2
2016-04-23T06:33:01.066Z,1005.2
2016-04-23T06:36:05.026Z,1005.22
2016-04-23T06:39:17.882Z,1005.38
2016-04-23T06:42:30.514Z,1005.18
2016-04-23T06:45:43.210Z,1005.24
2016-04-23T06:49:00.015Z,1005.18
2016-04-23T06:52:07.866Z,1005.18
2016-04-23T06:55:11.597Z,1005.12
2016-04-23T06:58:24.089Z,1005.18
2016-04-23T07:01:36.863Z,1005.08
2016-04-23T07:04:49.496Z,1005.06
2016-04-23T07:08:06.097Z,1005.04
2016-04-23T07:11:09.934Z,1004.98
2016-04-23T07:14:22.695Z,1004.98
2016-04-23T07:17:35.515Z,1004.94
2016-04-23T07:20:48.320Z,1005
2016-04-23T07:24:05.109Z,1004.84
2016-04-23T07:27:08.945Z,1004.96
2016-04-23T07:30:21.597Z,1004.96
2016-04-23T07:33:34.433Z,1004.84
2016-04-23T07:36:47.676Z,1004.55
2016-04-23T07:40:04.559Z,1004.57
2016-04-23T07:43:08.908Z,1004.59
2016-04-23T07:46:22.026Z,1004.39
2016-04-23T07:49:35.052Z,1004.61
2016-04-23T07:52:48.481Z,1004.11
2016-04-23T07:56:05.881Z,1003.89
2016-04-23T07:59:10.459Z,1004.23
2016-04-23T08:02:19.568Z,1004.33
2016-04-23T08:05:28.752Z,1004.07
2016-04-23T08:08:41.433Z,1004.07
2016-04-23T08:11:54.941Z,1004.35
2016-04-23T08:15:08.012Z,1004.37
2016-04-23T08:18:20.758Z,1004.45
2016-04-23T08:21:33.624Z,1004.51
2016-04-23T08:24:46.179Z,1004.53
2016-04-23T08:28:02.750Z,1004.53
2016-04-23T08:31:06.903Z,1004.41
2016-04-23T08:34:19.742Z,1004.61
2016-04-23T08:37:32.234Z,1004.57
2016-04-23T08:40:44.774Z,1004.67
2016-04-23T08:44:01.594Z,1004.55
2016-04-23T08:47:05.758Z,1003.67
2016-04-23T08:50:19.441Z,1003.45
2016-04-23T08:53:32.824Z,1004.27
2016-04-23T08:56:46.161Z,1004.03
2016-04-23T08:59:59.576Z,1004.07
2016-04-23T09:03:08.052Z,1004.25
2016-04-23T09:06:12.248Z,1004.25
2016-04-23T09:09:24.914Z,1003.77
2016-04-23T09:12:34.579Z,1003.39
2016-04-23T09:15:47.822Z,1004.29
2016-04-23T09:19:04.345Z,1004.29
2016-04-23T09:22:08.494Z,1004.15
2016-04-23T09:25:21.208Z,1003.91
2016-04-23T09:28:34.090Z,1004.25
2016-04-23T09:31:46.849Z,1004.37
2016-04-23T09:35:03.607Z,1003.89
2016-04-23T09:38:08.240Z,1003.35
2016-04-23T09:41:20.376Z,1003.01
2016-04-23T09:44:33.384Z,1004.03
2016-04-23T09:47:45.330Z,1002.88
2016-04-23T09:51:04.478Z,1003.79
2016-04-23T09:54:09.408Z,1002.89
2016-04-23T09:57:23.107Z,1003.59
2016-04-23T10:00:36.161Z,1003.91
2016-04-23T10:03:49.388Z,1003.99
2016-04-23T10:07:03.506Z,1003.93
2016-04-23T10:10:07.764Z,1004.07
2016-04-23T10:13:20.600Z,1003.91
2016-04-23T10:16:33.595Z,1004.05
2016-04-23T10:19:47.259Z,1004.15
2016-04-23T10:23:03.344Z,1003.97
2016-04-23T10:26:07.466Z,1004.01
2016-04-23T10:29:20.489Z,1004.01
2016-04-23T10:32:32.969Z,1003.95
2016-04-23T10:35:45.680Z,1003.99
2016-04-23T10:39:02.204Z,1004.09
2016-04-23T10:42:06.040Z,1004.01
2016-04-23T10:45:19.251Z,1003.91
2016-04-23T10:48:31.965Z,1003.93
2016-04-23T10:51:44.989Z,1003.95
2016-04-23T10:55:01.732Z,1003.95
2016-04-23T10:58:05.786Z,1003.75
2016-04-23T11:01:18.825Z,1003.85
2016-04-23T11:04:31.977Z,1003.83
2016-04-23T11:07:44.782Z,1003.85
2016-04-23T11:11:01.524Z,1003.87
2016-04-23T11:14:05.549Z,1003.79
2016-04-23T11:17:18.447Z,1003.79
2016-04-23T11:20:31.504Z,1003.69
2016-04-23T11:23:44.231Z,1003.65
2016-04-23T11:27:00.849Z,1003.67
2016-04-23T11:30:08.435Z,1003.61
2016-04-23T11:33:12.146Z,1003.61
2016-04-23T11:36:24.764Z,1003.63
2016-04-23T11:39:37.384Z,1003.57
2016-04-23T11:42:50.173Z,1003.49
2016-04-23T11:46:06.838Z,1003.45
2016-04-23T11:49:10.565Z,1003.39
2016-04-23T11:52:23.026Z,1003.37
2016-04-23T11:55:35.505Z,1003.23
2016-04-23T11:58:47.919Z,1003.23
2016-04-23T12:02:04.600Z,1003.34
2016-04-23T12:05:08.341Z,1003.41
2016-04-23T12:08:21.131Z,1003.3
2016-04-23T12:11:33.735Z,1003.19
2016-04-23T12:14:46.071Z,1003.23
2016-04-23T12:18:02.861Z,1003.13
2016-04-23T12:21:06.698Z,1003.05
2016-04-23T12:24:19.236Z,1003.11
2016-04-23T12:27:32.014Z,1003.13
2016-04-23T12:30:45.021Z,1002.99
2016-04-23T12:34:01.748Z,1003.05
2016-04-23T12:37:05.803Z,1003.01
2016-04-23T12:40:18.185Z,1002.99
2016-04-23T12:43:30.868Z,1002.99
2016-04-23T12:46:43.580Z,1002.84
2016-04-23T12:49:53.025Z,1002.84
2016-04-23T12:53:06.987Z,1002.89
2016-04-23T12:56:19.885Z,1002.7
2016-04-23T12:59:32.614Z,1002.54
2016-04-23T13:02:45.357Z,1002.58
2016-04-23T13:06:01.958Z,1002.6
2016-04-23T13:09:05.841Z,1002.56
2016-04-23T13:12:18.396Z,1002.58
2016-04-23T13:15:31.061Z,1002.5
2016-04-23T13:18:43.646Z,1002.66
2016-04-23T13:22:00.349Z,1002.7
2016-04-23T13:25:07.951Z,1002.46
2016-04-23T13:28:11.757Z,1002.32
2016-04-23T13:31:24.436Z,1002.44
2016-04-23T13:34:36.617Z,1002.4
2016-04-23T13:37:49.845Z,1002.34
2016-04-23T13:41:06.823Z,1002.28
2016-04-23T13:44:10.722Z,1002.3
2016-04-23T13:47:23.792Z,1002.24
2016-04-23T13:50:36.378Z,1002.18
2016-04-23T13:53:47.983Z,1002.22
2016-04-23T13:57:05.616Z,1002.24
2016-04-23T14:00:09.655Z,1002.18
2016-04-23T14:03:22.476Z,1002.2
2016-04-23T14:06:35.187Z,1002.28
2016-04-23T14:09:48.039Z,1002.2
2016-04-23T14:13:05.065Z,1002.14
2016-04-23T14:16:08.980Z,1002.12
2016-04-23T14:19:21.926Z,1002.12
2016-04-23T14:22:34.902Z,1002.1
2016-04-23T14:25:47.458Z,1002.02
2016-04-23T14:29:04.218Z,1002.06
2016-04-23T14:32:08.163Z,1002
2016-04-23T14:35:21.219Z,1001.9
2016-04-23T14:38:33.711Z,1001.82
2016-04-23T14:41:44.626Z,1001.92
2016-04-23T14:45:02.433Z,1001.88
2016-04-23T14:48:06.488Z,1001.72
2016-04-23T14:51:19.417Z,1001.82
2016-04-23T14:54:32.394Z,1001.86
2016-04-23T14:57:42.996Z,1001.76
2016-04-23T15:00:59.820Z,1001.7
2016-04-23T15:04:07.672Z,1001.62
2016-04-23T15:07:11.695Z,1001.64
2016-04-23T15:10:22.640Z,1001.54
2016-04-23T15:13:35.540Z,1001.58
2016-04-23T15:16:48.423Z,1001.47
2016-04-23T15:20:05.121Z,1001.54
2016-04-23T15:23:09.066Z,1001.56
2016-04-23T15:26:22.278Z,1001.39
2016-04-23T15:29:33.787Z,1001.5
2016-04-23T15:32:46.607Z,1001.37
2016-04-23T15:36:04.025Z,1001.41
2016-04-23T15:39:07.502Z,1001.41
2016-04-23T15:42:20.072Z,1001.43
2016-04-23T15:45:32.908Z,1001.48
2016-04-23T15:48:45.385Z,1001.54
2016-04-23T15:52:01.896Z,1001.47
2016-04-23T15:55:09.575Z,1001.45
2016-04-23T15:58:13.474Z,1001.47
2016-04-23T16:01:24.920Z,1001.5
2016-04-23T16:04:38.708Z,1001.45
2016-04-23T16:07:51.247Z,1001.48
2016-04-23T16:11:07.634Z,1001.5
2016-04-23T16:14:11.360Z,1001.45
2016-04-23T16:17:24.104Z,1001.5
2016-04-23T16:20:36.268Z,1001.41
2016-04-23T16:23:48.915Z,1001.43
2016-04-23T16:27:05.395Z,1001.43
2016-04-23T16:30:09.170Z,1001.43
2016-04-23T16:33:21.739Z,1001.35
2016-04-23T16:36:34.420Z,1001.23
2016-04-23T16:39:44.803Z,1001.37
2016-04-23T16:43:01.517Z,1001.43
2016-04-23T16:46:09.400Z,1001.39
2016-04-23T16:49:13.304Z,1001.39
2016-04-23T16:52:26.161Z,1001.35
2016-04-23T16:55:38.885Z,1001.39
2016-04-23T16:58:51.707Z,1001.29
2016-04-23T17:02:08.238Z,1001.35
2016-04-23T17:05:11.392Z,1001.37
2016-04-23T17:08:25.028Z,1001.33
2016-04-23T17:11:36.226Z,1001.39
2016-04-23T17:14:49.000Z,1001.39
2016-04-23T17:18:05.715Z,1001.45
2016-04-23T17:21:09.457Z,1001.39
2016-04-23T17:24:22.088Z,1001.48
2016-04-23T17:27:34.769Z,1001.43
2016-04-23T17:30:47.213Z,1001.45
2016-04-23T17:34:03.691Z,1001.48
2016-04-23T17:37:07.546Z,1001.48
2016-04-23T17:40:20.023Z,1001.47
2016-04-23T17:43:32.671Z,1001.35
2016-04-23T17:46:45.304Z,1001.58
2016-04-23T17:50:01.937Z,1001.68
2016-04-23T17:53:09.525Z,1001.72
2016-04-23T17:56:13.206Z,1001.7
2016-04-23T17:59:25.995Z,1001.72
2016-04-23T18:02:38.493Z,1001.76
2016-04-23T18:05:51.016Z,1001.8
2016-04-23T18:09:07.589Z,1001.86
2016-04-23T18:12:11.160Z,1001.9
2016-04-23T18:15:22.324Z,1002.04
2016-04-23T18:18:35.754Z,1002.04
2016-04-23T18:21:46.872Z,1002.06
2016-04-23T18:25:03.145Z,1002.16
2016-04-23T18:28:06.781Z,1002.16
2016-04-23T18:31:19.263Z,1002.14
2016-04-23T18:34:31.552Z,1002.22
2016-04-23T18:37:44.092Z,1002.22
2016-04-23T18:40:56.271Z,1002.16
2016-04-23T18:44:06.640Z,1002.3
2016-04-23T18:47:18.822Z,1002.4
2016-04-23T18:50:31.377Z,1002.48
2016-04-23T18:53:43.869Z,1002.52
2016-04-23T18:56:56.361Z,1002.56
2016-04-23T19:00:07.213Z,1002.58
2016-04-23T19:03:19.538Z,1002.74
2016-04-23T19:06:31.982Z,1002.7
2016-04-23T19:09:44.507Z,1002.76
2016-04-23T19:13:00.826Z,1002.74
2016-04-23T19:16:08.209Z,1002.74
2016-04-23T19:19:11.720Z,1002.76
2016-04-23T19:22:24.166Z,1002.86
2016-04-23T19:25:36.517Z,1002.8
2016-04-23T19:28:48.511Z,1002.78
2016-04-23T19:32:03.330Z,1002.86
2016-04-23T19:35:06.886Z,1002.89
2016-04-23T19:38:19.069Z,1002.86
2016-04-23T19:41:31.842Z,1002.82
2016-04-23T19:44:44.210Z,1002.86
2016-04-23T19:48:00.639Z,1002.86
2016-04-23T19:51:08.726Z,1002.86
2016-04-23T19:54:11.546Z,1002.84
2016-04-23T19:57:24.167Z,1002.86
2016-04-23T20:00:36.752Z,1002.8
2016-04-23T20:03:49.152Z,1002.91
2016-04-23T20:07:04.613Z,1002.89
2016-04-23T20:10:08.089Z,1002.93
2016-04-23T20:13:20.382Z,1002.88
2016-04-23T20:16:32.654Z,1002.88
2016-04-23T20:19:45.117Z,1002.99
2016-04-23T20:23:01.282Z,1002.88
2016-04-23T20:26:08.680Z,1002.95
2016-04-23T20:29:12.021Z,1003.03
2016-04-23T20:32:20.548Z,1002.91
2016-04-23T20:35:32.868Z,1002.88
2016-04-23T20:38:45.314Z,1002.88
2016-04-23T20:41:56.166Z,1002.97
2016-04-23T20:45:08.377Z,1003.01
2016-04-23T20:48:20.653Z,1002.97
2016-04-23T20:51:32.865Z,1002.93
2016-04-23T20:54:45.279Z,1002.99
2016-04-23T20:58:01.553Z,1002.97
2016-04-23T21:01:08.888Z,1002.97
2016-04-23T21:04:13.209Z,1002.99
2016-04-23T21:07:24.658Z,1003.09
2016-04-23T21:10:36.806Z,1003.07
2016-04-23T21:13:48.908Z,1003.01
2016-04-23T21:17:05.166Z,1003.01
2016-04-23T21:20:08.565Z,1002.93
2016-04-23T21:23:20.723Z,1002.91
2016-04-23T21:26:33.012Z,1002.88
2016-04-23T21:29:45.286Z,1002.95
2016-04-23T21:33:01.591Z,1002.88
2016-04-23T21:36:08.786Z,1002.93
2016-04-23T21:39:12.061Z,1003.03
2016-04-23T21:42:23.114Z,1003.03
2016-04-23T21:45:36.443Z,1003.09
2016-04-23T21:48:53.046Z,1002.99
2016-04-23T21:52:05.416Z,1003.09
2016-04-23T21:55:08.832Z,1003.09
2016-04-23T21:58:21.207Z,1003.05
2016-04-23T22:01:33.451Z,1002.99
2016-04-23T22:04:42.132Z,1003.03
2016-04-23T22:07:54.467Z,1003.07
2016-04-23T22:11:10.601Z,1003.05
2016-04-23T22:14:14.671Z,1002.99
2016-04-23T22:17:24.273Z,1002.95
2016-04-23T22:20:35.878Z,1003.03
2016-04-23T22:23:47.652Z,1003.09
2016-04-23T22:27:03.722Z,1003.03
2016-04-23T22:30:06.871Z,1003.07
2016-04-23T22:33:18.879Z,1003.07
2016-04-23T22:36:31.140Z,1003.07
2016-04-23T22:39:43.147Z,1003.13
2016-04-23T22:42:55.139Z,1003.07
2016-04-23T22:46:06.961Z,1003.13
2016-04-23T22:49:20.030Z,1003.09
2016-04-23T22:52:31.152Z,1003.23
2016-04-23T22:55:43.050Z,1003.19
2016-04-23T22:58:55.308Z,1003.32
2016-04-23T23:02:07.238Z,1003.3
2016-04-23T23:05:19.090Z,1003.34
2016-04-23T23:08:31.287Z,1003.37
2016-04-23T23:11:43.405Z,1003.43
2016-04-23T23:14:55.487Z,1003.37
2016-04-23T23:18:07.511Z,1003.37
2016-04-23T23:21:19.504Z,1003.39
2016-04-23T23:24:30.687Z,1003.47
2016-04-23T23:27:42.429Z,1003.47
2016-04-23T23:30:54.562Z,1003.49
2016-04-23T23:34:10.867Z,1003.61
2016-04-23T23:37:13.891Z,1003.49
2016-04-23T23:40:25.555Z,1003.55
2016-04-23T23:43:37.738Z,1003.41
2016-04-23T23:46:48.543Z,1003.63
2016-04-23T23:50:04.207Z,1003.55
2016-04-23T23:53:07.184Z,1003.51
2016-04-23T23:56:19.067Z,1003.55
2016-04-23T23:59:30.718Z,1003.51
